Time;durP1;ratioP1;P1;durP2;ratioP2;P2;SDS_P1;SDS_P2;PMS_P1;PMS_P2;Temp;Humidity;BMP_temperature;BMP_pressure;BME280_temperature;BME280_humidity;BME280_pressure;Samples;Min_cycle;Max_cycle;Signal;HPM_P1;HPM_P2
2024/01/30 00:01:51;;;;;;;;;;;;;;;11.07;55.31;101645.66;6057951;23;8438;-73
2024/01/30 00:04:17;;;;;;;;;;;;;;;11.10;55.68;101635.59;6034869;23;6767;-73
2024/01/30 00:06:44;;;;;;;;;;;;;;;11.18;56.35;101641.22;6058315;23;6767;-73
2024/01/30 00:09:10;;;;;;;;;;;;;;;11.29;56.21;101636.81;6058099;23;6954;-73
2024/01/30 00:11:37;;;;;;;;;;;;;;;11.40;56.56;101629.81;6059262;23;6767;-75
2024/01/30 00:14:04;;;;;;;;;;;;;;;11.55;56.33;101623.84;6059158;23;7042;-73
2024/01/30 00:16:29;;;;;;;;;;;;;;;11.69;56.28;101622.16;6058904;23;7214;-74
2024/01/30 00:18:55;;;;;;;;;;;;;;;11.83;56.46;101620.47;6058312;23;7161;-72
2024/01/30 00:21:21;;;;;;;;;;;;;;;11.95;56.21;101613.50;6034206;23;6897;-72
2024/01/30 00:23:47;;;;;;;;;;;;;;;12.08;56.11;101623.81;6035032;23;6933;-73
2024/01/30 00:26:14;;;;;;;;;;;;;;;12.18;56.58;101608.94;6036711;23;7170;-74
2024/01/30 00:28:41;;;;;;;;;;;;;;;12.31;56.12;101613.13;6059170;23;7467;-74
2024/01/30 00:31:07;;;;;;;;;;;;;;;12.42;56.53;101606.06;6024085;23;6979;-73
2024/01/30 00:33:33;;;;;;;;;;;;;;;12.52;56.51;101605.81;6030650;23;7372;-72
2024/01/30 00:35:59;;;;;;;;;;;;;;;12.62;55.64;101602.13;6007146;23;6755;-73
2024/01/30 00:38:24;;;;;;;;;;;;;;;12.69;54.96;101598.22;5984030;23;7037;-73
2024/01/30 00:40:50;;;;;;;;;;;;;;;12.75;55.12;101601.16;6009115;23;7163;-73
2024/01/30 00:43:16;;;;;;;;;;;;;;;12.79;55.11;101600.53;6007568;23;7176;-73
2024/01/30 00:45:43;;;;;;;;;;;;;;;12.83;54.41;101597.31;6006509;23;7412;-72
2024/01/30 00:48:09;;;;;;;;;;;;;;;12.84;54.60;101598.22;6007189;23;7008;-73
2024/01/30 00:50:35;;;;;;;;;;;;;;;12.85;55.12;101600.88;6008484;23;6916;-74
2024/01/30 00:53:00;;;;;;;;;;;;;;;12.88;55.14;101600.16;6007683;23;6764;-74
2024/01/30 00:55:26;;;;;;;;;;;;;;;12.90;54.41;101608.88;6008869;23;6909;-74
2024/01/30 00:57:52;;;;;;;;;;;;;;;12.92;54.74;101597.84;6007631;23;6756;-73
2024/01/30 01:00:18;;;;;;;;;;;;;;;12.96;54.30;101606.63;6006035;23;6770;-73
2024/01/30 01:02:44;;;;;;;;;;;;;;;13.01;54.54;101606.91;6006804;23;7368;-74
2024/01/30 01:05:10;;;;;;;;;;;;;;;13.08;54.85;101596.16;6008215;23;6814;-72
2024/01/30 01:07:36;;;;;;;;;;;;;;;13.14;54.29;101599.09;6007856;23;7034;-74
2024/01/30 01:10:02;;;;;;;;;;;;;;;13.21;54.84;101602.91;5984195;23;7020;-74
2024/01/30 01:12:28;;;;;;;;;;;;;;;13.25;53.87;101594.53;6006894;23;6771;-74
2024/01/30 01:14:53;;;;;;;;;;;;;;;13.30;54.36;101602.50;6007750;23;6759;-73
2024/01/30 01:17:19;;;;;;;;;;;;;;;13.32;54.19;101590.59;6006718;23;8405;-73
2024/01/30 01:19:45;;;;;;;;;;;;;;;13.34;54.30;101594.19;5984237;23;6939;-74
2024/01/30 01:22:11;;;;;;;;;;;;;;;13.35;53.68;101593.38;6006981;23;6771;-73
2024/01/30 01:24:37;;;;;;;;;;;;;;;13.37;54.17;101591.75;6007183;23;7000;-72
2024/01/30 01:27:03;;;;;;;;;;;;;;;13.38;53.73;101588.38;6006802;23;6831;-73
2024/01/30 01:29:29;;;;;;;;;;;;;;;13.40;53.85;101591.06;5984027;23;6965;-74
2024/01/30 01:31:55;;;;;;;;;;;;;;;13.39;54.02;101597.88;6007293;23;7093;-73
2024/01/30 01:34:22;;;;;;;;;;;;;;;13.41;53.37;101585.97;6007774;23;6835;-74
2024/01/30 01:36:47;;;;;;;;;;;;;;;13.45;53.29;101593.09;5984499;23;6795;-74
2024/01/30 01:39:13;;;;;;;;;;;;;;;13.49;53.08;101590.69;6006411;23;6930;-74
2024/01/30 01:41:39;;;;;;;;;;;;;;;13.52;53.67;101585.69;5983042;23;6955;-72
2024/01/30 01:44:05;;;;;;;;;;;;;;;13.54;53.18;101582.41;6007426;23;6947;-74
2024/01/30 01:46:33;;;;;;;;;;;;;;;13.57;52.71;101592.00;6006985;23;6803;-74
2024/01/30 01:49:05;;;;;;;;;;;;;;;13.57;52.51;101585.19;6031745;23;6828;-73
2024/01/30 01:51:35;;;;;;;;;;;;;;;13.56;52.71;101585.09;6030939;23;7190;-73
2024/01/30 01:54:05;;;;;;;;;;;;;;;13.55;52.83;101580.75;6008964;23;8433;-73
2024/01/30 01:56:33;;;;;;;;;;;;;;;13.54;53.13;101578.97;6006688;23;7246;-74
2024/01/30 01:59:07;;;;;;;;;;;;;;;13.53;53.18;101582.34;6008718;23;6771;-73
2024/01/30 02:01:34;;;;;;;;;;;;;;;13.53;52.91;101583.22;5983447;23;6974;-72
2024/01/30 02:04:00;;;;;;;;;;;;;;;13.56;53.29;101579.94;5984344;23;6968;-73
2024/01/30 02:06:27;;;;;;;;;;;;;;;13.59;52.78;101574.94;6006004;23;7184;-74
2024/01/30 02:08:53;;;;;;;;;;;;;;;13.63;52.99;101573.41;6031230;23;6759;-73
2024/01/30 02:11:19;;;;;;;;;;;;;;;13.67;52.74;101572.81;6007322;23;6918;-74
2024/01/30 02:13:45;;;;;;;;;;;;;;;13.71;53.25;101567.00;6006724;23;6767;-73
2024/01/30 02:16:11;;;;;;;;;;;;;;;13.75;52.32;101569.81;6007304;23;6755;-73
2024/01/30 02:18:41;;;;;;;;;;;;;;;13.78;52.55;101573.34;5981733;23;6940;-76
2024/01/30 02:21:07;;;;;;;;;;;;;;;13.81;52.75;101568.34;6004408;23;6956;-76
2024/01/30 02:23:34;;;;;;;;;;;;;;;13.84;53.00;101565.97;6004641;23;7025;-76
2024/01/30 02:26:00;;;;;;;;;;;;;;;13.88;52.70;101565.31;6005031;23;7021;-76
2024/01/30 02:28:26;;;;;;;;;;;;;;;13.88;52.20;101565.31;6003442;23;6843;-76
2024/01/30 02:30:51;;;;;;;;;;;;;;;13.86;52.33;101561.78;5999866;23;6946;-76
2024/01/30 02:33:17;;;;;;;;;;;;;;;13.85;51.99;101562.59;6024467;23;7013;-76
2024/01/30 02:35:42;;;;;;;;;;;;;;;13.85;52.81;101560.00;6002781;23;8362;-76
2024/01/30 02:38:08;;;;;;;;;;;;;;;13.84;52.54;101559.09;6000721;23;7218;-75
2024/01/30 02:40:34;;;;;;;;;;;;;;;13.83;52.32;101557.34;6002321;23;6839;-76
2024/01/30 02:43:02;;;;;;;;;;;;;;;13.85;52.21;101560.00;5979014;23;6927;-76
2024/01/30 02:45:27;;;;;;;;;;;;;;;13.85;52.01;101557.44;5979057;23;7971;-76
2024/01/30 02:47:53;;;;;;;;;;;;;;;13.86;52.38;101551.47;6000095;23;7069;-76
2024/01/30 02:50:19;;;;;;;;;;;;;;;13.87;52.20;101559.28;6001085;23;6823;-76
2024/01/30 02:52:44;;;;;;;;;;;;;;;13.88;52.53;101557.59;6003635;23;7790;-76
2024/01/30 02:55:10;;;;;;;;;;;;;;;13.87;52.08;101548.09;6000572;23;6926;-76
2024/01/30 02:57:36;;;;;;;;;;;;;;;13.85;52.54;101550.56;6001129;23;6842;-76
2024/01/30 03:00:03;;;;;;;;;;;;;;;13.81;52.37;101551.22;6001517;23;6767;-76
2024/01/30 03:02:29;;;;;;;;;;;;;;;13.82;52.96;101534.09;6001160;23;7267;-76
2024/01/30 03:04:55;;;;;;;;;;;;;;;13.82;52.83;101540.09;6002216;23;8044;-76
2024/01/30 03:07:20;;;;;;;;;;;;;;;13.84;52.15;101547.94;6001990;23;6835;-76
2024/01/30 03:09:46;;;;;;;;;;;;;;;13.86;52.78;101541.16;6002816;23;6763;-76
2024/01/30 03:12:12;;;;;;;;;;;;;;;13.88;52.36;101542.13;6002270;23;7004;-76
2024/01/30 03:14:37;;;;;;;;;;;;;;;13.91;52.77;101549.13;6002672;23;7157;-76
2024/01/30 03:17:03;;;;;;;;;;;;;;;13.88;52.76;101545.59;6024831;23;6972;-76
2024/01/30 03:19:29;;;;;;;;;;;;;;;13.86;52.88;101541.16;5978093;23;7209;-76
2024/01/30 03:21:54;;;;;;;;;;;;;;;13.83;51.97;101546.16;6002318;23;7037;-76
2024/01/30 03:24:20;;;;;;;;;;;;;;;13.80;52.79;101541.72;5978101;23;7121;-76
2024/01/30 03:26:46;;;;;;;;;;;;;;;13.80;53.13;101544.31;6002973;23;7207;-75
2024/01/30 03:29:11;;;;;;;;;;;;;;;13.81;52.52;101537.44;6006048;23;6931;-73
2024/01/30 03:31:37;;;;;;;;;;;;;;;13.81;52.66;101532.28;6005680;23;6767;-74
2024/01/30 03:34:03;;;;;;;;;;;;;;;13.84;53.00;101537.63;5983323;23;6957;-73
2024/01/30 03:36:28;;;;;;;;;;;;;;;13.83;52.65;101530.69;5982169;23;7233;-73
2024/01/30 03:38:54;;;;;;;;;;;;;;;13.81;52.09;101529.72;6005656;23;6759;-74
2024/01/30 03:41:20;;;;;;;;;;;;;;;13.80;52.06;101533.09;6006459;23;6947;-75
2024/01/30 03:43:47;;;;;;;;;;;;;;;13.77;52.31;101528.69;6006040;23;7038;-73
2024/01/30 03:46:13;;;;;;;;;;;;;;;13.76;52.45;101529.47;6005408;23;6776;-75
2024/01/30 03:48:39;;;;;;;;;;;;;;;13.75;52.42;101526.03;5982724;23;7033;-73
2024/01/30 03:51:05;;;;;;;;;;;;;;;13.75;52.60;101533.75;6005530;23;6855;-74
2024/01/30 03:53:31;;;;;;;;;;;;;;;13.75;53.10;101526.03;6006455;23;6771;-73
2024/01/30 03:55:57;;;;;;;;;;;;;;;13.75;52.84;101528.59;6006673;23;6767;-73
2024/01/30 03:58:22;;;;;;;;;;;;;;;13.75;52.22;101523.44;6006947;23;6914;-74
2024/01/30 04:00:48;;;;;;;;;;;;;;;13.75;53.25;101533.75;6007935;23;6783;-73
2024/01/30 04:03:17;;;;;;;;;;;;;;;13.78;52.52;101529.56;5983796;23;6942;-73
2024/01/30 04:05:42;;;;;;;;;;;;;;;13.80;53.27;101530.50;6007918;23;6834;-75
2024/01/30 04:08:08;;;;;;;;;;;;;;;13.82;52.77;101523.78;6006249;23;6992;-75
2024/01/30 04:10:34;;;;;;;;;;;;;;;13.87;53.06;101517.16;6008380;23;6917;-73
2024/01/30 04:13:00;;;;;;;;;;;;;;;13.91;53.24;101513.06;6007166;23;6959;-74
2024/01/30 04:15:26;;;;;;;;;;;;;;;13.94;52.98;101518.34;6031576;23;6799;-73
2024/01/30 04:17:52;;;;;;;;;;;;;;;13.95;52.84;101513.28;6007040;23;6939;-73
2024/01/30 04:20:18;;;;;;;;;;;;;;;13.96;52.45;101515.06;6005713;23;6775;-73
2024/01/30 04:22:47;;;;;;;;;;;;;;;13.96;52.58;101511.63;6006278;23;6970;-73
2024/01/30 04:25:13;;;;;;;;;;;;;;;13.96;52.79;101506.47;6006494;23;6843;-73
2024/01/30 04:27:39;;;;;;;;;;;;;;;13.96;53.04;101502.19;6006174;23;6960;-74
2024/01/30 04:30:05;;;;;;;;;;;;;;;13.97;53.17;101508.22;6006807;23;6925;-73
2024/01/30 04:32:31;;;;;;;;;;;;;;;13.97;52.62;101506.53;6006783;23;7090;-73
2024/01/30 04:34:57;;;;;;;;;;;;;;;13.99;52.77;101509.19;6008056;23;6922;-74
2024/01/30 04:37:23;;;;;;;;;;;;;;;14.01;52.55;101507.56;6007813;23;6763;-76
2024/01/30 04:39:49;;;;;;;;;;;;;;;14.01;52.71;101500.72;6031169;23;6970;-76
2024/01/30 04:42:14;;;;;;;;;;;;;;;14.03;52.41;101506.84;6006413;23;7129;-77
2024/01/30 04:44:40;;;;;;;;;;;;;;;14.03;53.14;101499.13;6032185;23;6823;-76
2024/01/30 04:47:08;;;;;;;;;;;;;;;14.02;53.13;101501.59;6009175;23;6755;-76
2024/01/30 04:49:34;;;;;;;;;;;;;;;14.01;53.31;101500.72;5986731;23;6956;-76
2024/01/30 04:52:00;;;;;;;;;;;;;;;14.03;52.81;101509.44;6012199;23;6791;-76
2024/01/30 04:54:26;;;;;;;;;;;;;;;14.03;52.82;101512.00;6032160;23;6907;-76
2024/01/30 04:56:52;;;;;;;;;;;;;;;14.02;53.32;101510.22;6010709;23;8019;-76
2024/01/30 04:59:18;;;;;;;;;;;;;;;14.02;53.67;101510.22;6010526;23;6895;-75
2024/01/30 05:01:44;;;;;;;;;;;;;;;14.01;52.83;101507.56;6011559;23;6953;-76
2024/01/30 05:04:11;;;;;;;;;;;;;;;14.00;52.70;101506.69;6009664;23;6944;-76
2024/01/30 05:06:37;;;;;;;;;;;;;;;13.99;53.28;101507.47;6030217;23;7037;-77
2024/01/30 05:09:06;;;;;;;;;;;;;;;13.98;52.93;101508.28;6006771;23;6775;-77
2024/01/30 05:11:36;;;;;;;;;;;;;;;13.96;53.32;101509.03;6008632;23;6836;-75
2024/01/30 05:14:02;;;;;;;;;;;;;;;13.93;52.69;101507.19;6011764;23;6960;-76
2024/01/30 05:16:27;;;;;;;;;;;;;;;13.94;53.07;101506.38;6035154;23;6938;-76
2024/01/30 05:18:53;;;;;;;;;;;;;;;13.95;52.76;101500.41;6011995;23;7191;-76
2024/01/30 05:21:19;;;;;;;;;;;;;;;13.98;52.87;101500.56;5987079;23;6946;-76
2024/01/30 05:23:44;;;;;;;;;;;;;;;14.03;53.21;101506.84;6014257;23;6763;-76
2024/01/30 05:26:10;;;;;;;;;;;;;;;14.07;53.00;101509.56;5988441;23;6918;-76
2024/01/30 05:28:36;;;;;;;;;;;;;;;14.12;53.06;101514.16;6011172;23;7096;-76
2024/01/30 05:31:01;;;;;;;;;;;;;;;14.16;53.47;101510.03;6012055;23;6775;-76
2024/01/30 05:33:28;;;;;;;;;;;;;;;14.22;53.85;101507.78;6013367;23;7139;-76
2024/01/30 05:35:54;;;;;;;;;;;;;;;14.26;53.39;101501.97;6012951;23;6840;-76
2024/01/30 05:38:20;;;;;;;;;;;;;;;14.29;53.01;101499.56;6012187;23;6961;-76
2024/01/30 05:40:46;;;;;;;;;;;;;;;14.30;53.45;101491.00;5985672;23;6936;-76
2024/01/30 05:43:12;;;;;;;;;;;;;;;14.31;52.77;101489.31;6011793;23;6903;-76
2024/01/30 05:45:38;;;;;;;;;;;;;;;14.32;53.12;101491.06;6013177;23;7170;-76
2024/01/30 05:48:04;;;;;;;;;;;;;;;14.33;52.65;101481.66;6017188;23;7196;-75
2024/01/30 05:50:30;;;;;;;;;;;;;;;14.33;53.54;101481.66;6020143;23;6779;-77
2024/01/30 05:52:56;;;;;;;;;;;;;;;14.33;52.94;101476.50;6019430;23;7401;-75
2024/01/30 05:55:21;;;;;;;;;;;;;;;14.34;52.55;101480.84;6019748;23;6814;-76
2024/01/30 05:57:47;;;;;;;;;;;;;;;14.33;53.04;101485.09;6018532;23;6926;-77
2024/01/30 06:00:13;;;;;;;;;;;;;;;14.36;52.77;101484.38;6023244;23;6767;-75
2024/01/30 06:02:39;;;;;;;;;;;;;;;14.38;52.93;101478.50;6032448;23;6756;-75
2024/01/30 06:05:04;;;;;;;;;;;;;;;14.39;53.35;101482.84;6021169;23;6946;-77
2024/01/30 06:07:31;;;;;;;;;;;;;;;14.41;53.16;101481.22;6019707;23;6767;-76
2024/01/30 06:09:57;;;;;;;;;;;;;;;14.43;53.08;101484.75;5995990;23;6957;-77
2024/01/30 06:12:23;;;;;;;;;;;;;;;14.44;53.68;101481.38;6019620;23;6755;-75
2024/01/30 06:14:48;;;;;;;;;;;;;;;14.44;53.14;101477.91;6023062;23;7015;-76
2024/01/30 06:17:14;;;;;;;;;;;;;;;14.46;53.59;101486.59;6003438;23;7003;-76
2024/01/30 06:19:40;;;;;;;;;;;;;;;14.48;53.60;101482.41;6011754;23;7020;-75
2024/01/30 06:22:06;;;;;;;;;;;;;;;14.52;53.47;101473.13;6012129;23;6905;-76
2024/01/30 06:24:31;;;;;;;;;;;;;;;14.54;53.23;101474.97;6012314;23;6763;-76
2024/01/30 06:26:57;;;;;;;;;;;;;;;14.58;53.65;101468.28;6011915;23;6931;-76
2024/01/30 06:29:24;;;;;;;;;;;;;;;14.61;53.29;101464.97;6012820;23;6775;-76
2024/01/30 06:31:50;;;;;;;;;;;;;;;14.65;53.78;101462.59;6012018;23;6846;-76
2024/01/30 06:34:16;;;;;;;;;;;;;;;14.69;53.38;101472.25;6013192;23;6929;-76
2024/01/30 06:36:42;;;;;;;;;;;;;;;14.75;52.91;101469.09;6012361;23;6818;-76
2024/01/30 06:39:07;;;;;;;;;;;;;;;14.80;52.87;101470.22;6011783;23;6755;-75
2024/01/30 06:41:33;;;;;;;;;;;;;;;14.87;53.28;101476.56;6013243;23;6943;-76
2024/01/30 06:43:59;;;;;;;;;;;;;;;14.92;52.62;101474.19;6012319;23;6929;-75
2024/01/30 06:46:25;;;;;;;;;;;;;;;14.95;52.85;101474.34;6011970;23;6755;-76
2024/01/30 06:48:50;;;;;;;;;;;;;;;15.00;52.90;101478.03;6011672;23;6839;-76
2024/01/30 06:51:16;;;;;;;;;;;;;;;15.02;53.06;101471.25;6011763;23;6921;-76
2024/01/30 06:53:41;;;;;;;;;;;;;;;15.05;52.68;101473.09;6010335;23;6763;-76
2024/01/30 06:56:08;;;;;;;;;;;;;;;15.08;52.75;101465.47;6012741;23;6811;-76
2024/01/30 06:58:33;;;;;;;;;;;;;;;15.08;52.62;101466.38;6023923;23;6859;-76
2024/01/30 07:00:59;;;;;;;;;;;;;;;15.09;53.06;101470.72;6047319;23;6945;-76
2024/01/30 07:03:25;;;;;;;;;;;;;;;15.11;52.43;101461.34;5991215;23;6788;-76
2024/01/30 07:05:51;;;;;;;;;;;;;;;15.13;52.94;101469.16;6019714;23;6982;-76
2024/01/30 07:08:17;;;;;;;;;;;;;;;15.16;52.53;101479.63;5995862;24;6779;-76
2024/01/30 07:10:44;;;;;;;;;;;;;;;15.17;52.46;101473.66;6018745;23;6910;-76
2024/01/30 07:13:11;;;;;;;;;;;;;;;15.19;52.27;101481.47;6020499;23;6755;-76
2024/01/30 07:15:37;;;;;;;;;;;;;;;15.22;52.72;101490.25;6020103;23;6771;-76
2024/01/30 07:18:04;;;;;;;;;;;;;;;15.24;52.37;101487.72;6019056;23;6993;-75
2024/01/30 07:20:31;;;;;;;;;;;;;;;15.25;52.46;101485.22;6019440;23;6946;-75
2024/01/30 07:22:58;;;;;;;;;;;;;;;15.26;51.93;101488.69;6019516;23;7025;-76
2024/01/30 07:25:27;;;;;;;;;;;;;;;15.28;52.07;101494.81;6019752;23;6926;-75
2024/01/30 07:27:53;;;;;;;;;;;;;;;15.28;52.48;101490.50;6019057;23;6940;-76
2024/01/30 07:30:20;;;;;;;;;;;;;;;15.30;52.52;101497.44;5992719;23;6947;-76
2024/01/30 07:32:46;;;;;;;;;;;;;;;15.31;52.29;101502.69;6017868;23;6816;-75
2024/01/30 07:35:13;;;;;;;;;;;;;;;15.33;51.99;101508.81;6017875;23;6776;-76
2024/01/30 07:37:38;;;;;;;;;;;;;;;15.35;52.02;101517.50;6022725;23;6771;-76
2024/01/30 07:40:06;;;;;;;;;;;;;;;15.38;51.96;101507.34;6023364;23;6924;-75
2024/01/30 07:42:31;;;;;;;;;;;;;;;15.40;52.17;101508.28;6023857;23;7386;-75
2024/01/30 07:44:57;;;;;;;;;;;;;;;15.44;51.64;101513.59;6022830;23;6908;-76
2024/01/30 07:47:22;;;;;;;;;;;;;;;15.48;52.23;101505.19;5999666;23;7097;-75
2024/01/30 07:49:48;;;;;;;;;;;;;;;15.50;51.53;101509.59;6024916;23;6910;-75
2024/01/30 07:52:13;;;;;;;;;;;;;;;15.56;51.68;101524.50;6023194;23;6938;-75
2024/01/30 07:54:39;;;;;;;;;;;;;;;15.59;51.52;101527.22;6027947;23;6834;-75
2024/01/30 07:57:05;;;;;;;;;;;;;;;15.60;51.71;101534.16;6051030;23;6934;-76
2024/01/30 07:59:31;;;;;;;;;;;;;;;15.64;51.39;101537.75;6024013;23;7175;-75
2024/01/30 08:01:56;;;;;;;;;;;;;;;15.66;51.39;101536.13;6023352;23;7188;-75
2024/01/30 08:04:22;;;;;;;;;;;;;;;15.66;51.17;101529.25;6025575;23;6755;-75
2024/01/30 08:06:47;;;;;;;;;;;;;;;15.68;50.87;101543.13;6024639;23;6939;-72
2024/01/30 08:09:14;;;;;;;;;;;;;;;15.67;51.03;101538.78;6017416;23;6759;-75
2024/01/30 08:11:40;;;;;;;;;;;;;;;15.69;50.88;101549.16;6014892;23;6965;-75
2024/01/30 08:14:05;;;;;;;;;;;;;;;15.67;50.77;101554.28;6015818;23;7090;-76
2024/01/30 08:16:31;;;;;;;;;;;;;;;15.67;51.34;101554.28;6015780;23;6987;-76
2024/01/30 08:18:57;;;;;;;;;;;;;;;15.67;50.77;101556.88;5992903;23;6922;-76
2024/01/30 08:21:23;;;;;;;;;;;;;;;15.68;50.54;101568.97;6018035;23;6936;-76
2024/01/30 08:23:49;;;;;;;;;;;;;;;15.71;51.00;101563.06;6020324;23;6879;-76
2024/01/30 08:26:14;;;;;;;;;;;;;;;15.72;50.71;101575.19;6019041;23;6929;-76
2024/01/30 08:28:40;;;;;;;;;;;;;;;15.73;50.93;101587.28;6040679;23;7098;-76
2024/01/30 08:31:05;;;;;;;;;;;;;;;15.75;50.99;101580.47;6015537;23;6903;-75
2024/01/30 08:33:31;;;;;;;;;;;;;;;15.77;51.03;101584.00;6018414;23;6946;-76
2024/01/30 08:35:57;;;;;;;;;;;;;;;15.81;50.97;101590.19;5994664;23;7265;-76
2024/01/30 08:38:22;;;;;;;;;;;;;;;15.82;50.66;101592.88;6017638;23;6940;-76
2024/01/30 08:40:48;;;;;;;;;;;;;;;15.84;50.72;101590.38;6018114;23;6728;-75
2024/01/30 08:43:15;;;;;;;;;;;;;;;15.87;50.86;101594.75;6017864;23;6759;-75
2024/01/30 08:45:41;;;;;;;;;;;;;;;15.90;50.70;101603.56;6042706;23;6830;-76
2024/01/30 08:48:07;;;;;;;;;;;;;;;15.92;50.68;101603.66;6019764;23;6960;-76
2024/01/30 08:50:33;;;;;;;;;;;;;;;15.96;50.58;101600.38;6042747;23;7041;-75
2024/01/30 08:52:59;;;;;;;;;;;;;;;15.98;50.59;101603.06;6019320;23;6954;-75
2024/01/30 08:55:24;;;;;;;;;;;;;;;16.00;50.34;101602.31;6016485;23;6763;-76
2024/01/30 08:57:51;;;;;;;;;;;;;;;16.02;50.31;101599.78;6034578;23;6769;-76
2024/01/30 09:00:17;;;;;;;;;;;;;;;16.03;50.56;101601.53;6040914;23;6976;-76
2024/01/30 09:02:43;;;;;;;;;;;;;;;16.04;50.58;101609.38;6017761;23;7329;-76
2024/01/30 09:05:09;;;;;;;;;;;;;;;16.05;50.55;101605.97;6018922;23;6736;-76
2024/01/30 09:07:34;;;;;;;;;;;;;;;16.06;50.54;101607.72;5994454;23;6948;-76
2024/01/30 09:10:00;;;;;;;;;;;;;;;16.12;50.75;101614.00;6022177;23;6727;-76
2024/01/30 09:12:25;;;;;;;;;;;;;;;16.18;50.91;101604.81;6018839;23;6764;-76
2024/01/30 09:14:51;;;;;;;;;;;;;;;16.27;50.31;101612.09;6018113;23;7357;-76
2024/01/30 09:17:17;;;;;;;;;;;;;;;16.35;50.26;101609.84;6017302;23;7177;-75
2024/01/30 09:19:42;;;;;;;;;;;;;;;16.45;50.51;101616.28;6019126;23;6938;-76
2024/01/30 09:22:08;;;;;;;;;;;;;;;16.57;50.32;101621.13;6017217;23;6928;-75
2024/01/30 09:24:34;;;;;;;;;;;;;;;16.70;50.10;101623.41;6018294;23;6763;-76
2024/01/30 09:27:00;;;;;;;;;;;;;;;16.82;50.04;101622.19;6018954;23;6775;-76
2024/01/30 09:29:26;;;;;;;;;;;;;;;16.92;49.64;101626.91;6042359;23;7058;-76
2024/01/30 09:31:51;;;;;;;;;;;;;;;16.98;49.77;101629.72;6017415;23;6767;-76
2024/01/30 09:34:17;;;;;;;;;;;;;;;17.05;48.99;101630.94;6018401;23;6799;-76
2024/01/30 09:36:43;;;;;;;;;;;;;;;17.08;49.02;101636.22;6019313;23;6768;-76
2024/01/30 09:39:08;;;;;;;;;;;;;;;17.11;48.88;101635.47;6042439;23;6940;-75
2024/01/30 09:41:49;;;;;;;;;;;;;;;17.12;49.10;101629.47;6018233;23;6767;-76
2024/01/30 09:44:17;;;;;;;;;;;;;;;17.12;48.98;101638.09;5994470;23;7259;-76
2024/01/30 09:46:46;;;;;;;;;;;;;;;17.10;49.17;101626.81;6017131;23;6783;-76
2024/01/30 09:49:13;;;;;;;;;;;;;;;17.09;48.70;101643.16;6015554;23;6933;-76
2024/01/30 09:51:40;;;;;;;;;;;;;;;17.08;48.99;101641.41;6016562;23;6822;-76
2024/01/30 09:54:09;;;;;;;;;;;;;;;17.08;49.34;101644.88;6018911;23;6767;-75
2024/01/30 09:56:35;;;;;;;;;;;;;;;17.10;49.15;101650.13;6015940;23;7333;-76
2024/01/30 09:59:00;;;;;;;;;;;;;;;17.11;49.07;101636.34;6016628;23;6755;-76
2024/01/30 10:01:26;;;;;;;;;;;;;;;17.12;48.76;101639.84;6016498;23;7138;-76
2024/01/30 10:03:55;;;;;;;;;;;;;;;17.14;48.70;101640.78;6015294;23;6931;-75
2024/01/30 10:06:22;;;;;;;;;;;;;;;17.15;48.77;101637.34;6017814;23;6803;-76
2024/01/30 10:08:48;;;;;;;;;;;;;;;17.15;48.66;101637.34;6017320;23;6992;-76
2024/01/30 10:11:14;;;;;;;;;;;;;;;17.13;48.48;101641.59;6020041;23;6811;-76
2024/01/30 10:13:39;;;;;;;;;;;;;;;17.10;48.55;101636.31;6018514;23;6826;-76
2024/01/30 10:16:06;;;;;;;;;;;;;;;17.11;48.95;101640.66;6018523;23;7100;-76
2024/01/30 10:18:32;;;;;;;;;;;;;;;17.11;49.09;101640.66;6018881;23;6775;-75
2024/01/30 10:20:59;;;;;;;;;;;;;;;17.10;48.76;101632.00;6017254;23;6805;-76
2024/01/30 10:23:25;;;;;;;;;;;;;;;17.11;48.99;101635.47;6017932;23;6763;-76
2024/01/30 10:25:52;;;;;;;;;;;;;;;17.14;49.09;101631.31;6017971;23;6921;-76
2024/01/30 10:28:18;;;;;;;;;;;;;;;17.16;48.88;101632.25;6011158;23;7153;-74
2024/01/30 10:30:43;;;;;;;;;;;;;;;17.20;48.87;101636.72;6008144;23;6783;-75
2024/01/30 10:33:09;;;;;;;;;;;;;;;17.25;49.37;101631.72;6007987;23;6759;-74
2024/01/30 10:35:35;;;;;;;;;;;;;;;17.29;49.41;101627.56;6028504;23;7280;-74
2024/01/30 10:38:00;;;;;;;;;;;;;;;17.31;49.12;101634.56;6006793;23;7313;-74
2024/01/30 10:40:28;;;;;;;;;;;;;;;17.34;48.96;101624.31;6008041;23;6763;-73
2024/01/30 10:42:56;;;;;;;;;;;;;;;17.37;49.36;101635.63;6007935;23;6931;-74
2024/01/30 10:45:27;;;;;;;;;;;;;;;17.39;49.43;101631.41;6007342;23;7118;-74
2024/01/30 10:47:58;;;;;;;;;;;;;;;17.41;48.81;101634.94;6007749;23;6771;-73
2024/01/30 10:50:25;;;;;;;;;;;;;;;17.42;49.31;101641.88;6007762;23;6775;-74
2024/01/30 10:52:53;;;;;;;;;;;;;;;17.44;49.01;101640.22;5984557;23;6967;-73
2024/01/30 10:55:19;;;;;;;;;;;;;;;17.46;49.58;101633.41;6008241;23;6776;-74
2024/01/30 10:57:44;;;;;;;;;;;;;;;17.51;49.15;101634.47;6007435;23;7224;-75
2024/01/30 11:00:15;;;;;;;;;;;;;;;17.54;49.27;101641.50;6007039;23;6751;-72
2024/01/30 11:02:46;;;;;;;;;;;;;;;17.54;49.09;101625.94;6007240;23;6825;-75
2024/01/30 11:05:13;;;;;;;;;;;;;;;17.56;49.21;101635.53;6007567;23;6779;-73
2024/01/30 11:07:41;;;;;;;;;;;;;;;17.58;49.28;101640.78;6006857;23;6783;-74
2024/01/30 11:10:09;;;;;;;;;;;;;;;17.55;49.60;101638.94;6007538;23;6831;-73
2024/01/30 11:12:43;;;;;;;;;;;;;;;17.54;49.58;101633.72;6007572;23;6783;-74
2024/01/30 11:15:13;;;;;;;;;;;;;;;17.50;49.19;101650.84;6031376;23;7034;-73
2024/01/30 11:17:47;;;;;;;;;;;;;;;17.48;49.55;101648.19;6007862;23;7291;-74
2024/01/30 11:20:25;;;;;;;;;;;;;;;17.46;49.78;101651.53;6031935;23;6933;-72
2024/01/30 11:22:53;;;;;;;;;;;;;;;17.41;49.49;101650.50;6007030;23;6771;-74
2024/01/30 11:25:23;;;;;;;;;;;;;;;17.33;49.15;101648.47;5983856;23;7047;-74
2024/01/30 11:27:53;;;;;;;;;;;;;;;17.27;49.35;101655.97;6007789;23;7425;-72
2024/01/30 11:30:32;;;;;;;;;;;;;;;17.22;49.87;101649.75;6031263;23;7062;-73
2024/01/30 11:33:11;;;;;;;;;;;;;;;17.16;50.02;101659.84;6007573;23;6924;-73
2024/01/30 11:35:44;;;;;;;;;;;;;;;17.10;49.88;101660.47;6006793;23;7050;-73
2024/01/30 11:38:14;;;;;;;;;;;;;;;17.10;49.92;101657.03;6017151;23;6970;-77
2024/01/30 11:40:40;;;;;;;;;;;;;;;17.08;49.76;101663.00;6023243;23;6957;-76
2024/01/30 11:43:08;;;;;;;;;;;;;;;17.07;50.00;101656.06;6022803;23;6840;-75
2024/01/30 11:45:35;;;;;;;;;;;;;;;17.07;50.47;101655.19;6025129;23;6862;-75
2024/01/30 11:48:05;;;;;;;;;;;;;;;17.05;50.05;101657.69;6024928;23;7183;-75
2024/01/30 11:50:35;;;;;;;;;;;;;;;17.04;50.02;101644.69;6023023;23;7180;-75
2024/01/30 11:53:02;;;;;;;;;;;;;;;17.03;50.34;101646.41;6023722;23;6832;-75
2024/01/30 11:55:30;;;;;;;;;;;;;;;17.03;50.74;101638.63;6020483;23;6926;-75
2024/01/30 11:57:57;;;;;;;;;;;;;;;17.03;50.82;101646.41;5997689;23;7273;-76
2024/01/30 12:00:22;;;;;;;;;;;;;;;17.04;50.82;101631.72;6022528;23;6962;-77
2024/01/30 12:02:56;;;;;;;;;;;;;;;17.06;50.25;101643.06;6001668;23;6910;-75
2024/01/30 12:05:24;;;;;;;;;;;;;;;17.10;50.14;101639.75;6024908;23;6775;-76
2024/01/30 12:07:50;;;;;;;;;;;;;;;17.18;50.88;101640.97;6022588;23;6950;-76
2024/01/30 12:10:16;;;;;;;;;;;;;;;17.24;50.50;101648.09;6023726;23;6946;-76
2024/01/30 12:12:51;;;;;;;;;;;;;;;17.28;50.27;101644.78;6022870;23;6883;-76
2024/01/30 12:15:21;;;;;;;;;;;;;;;17.30;50.23;101642.28;6022985;23;7193;-75
2024/01/30 12:17:47;;;;;;;;;;;;;;;17.32;50.13;101645.81;6019695;23;6847;-76
2024/01/30 12:20:17;;;;;;;;;;;;;;;17.30;50.29;101643.16;6024076;23;6960;-75
2024/01/30 12:22:45;;;;;;;;;;;;;;;17.28;50.24;101643.91;6025533;23;7266;-76
2024/01/30 12:25:16;;;;;;;;;;;;;;;17.24;50.08;101648.09;6022741;23;7278;-76
2024/01/30 12:27:45;;;;;;;;;;;;;;;17.22;50.25;101649.75;6025788;23;7154;-76
2024/01/30 12:30:13;;;;;;;;;;;;;;;17.22;50.34;101654.94;6024751;23;7343;-75
2024/01/30 12:32:42;;;;;;;;;;;;;;;17.19;50.25;101645.31;6023501;23;11318;-75
2024/01/30 12:35:20;;;;;;;;;;;;;;;17.16;49.95;101646.91;6026868;23;6941;-75
2024/01/30 12:37:47;;;;;;;;;;;;;;;17.12;50.26;101643.28;6031581;23;6818;-75
2024/01/30 12:40:15;;;;;;;;;;;;;;;17.10;50.37;101646.66;6027340;23;6956;-76
2024/01/30 12:42:51;;;;;;;;;;;;;;;17.06;50.24;101653.41;6025250;23;7186;-75
2024/01/30 12:45:21;;;;;;;;;;;;;;;17.04;50.82;101657.63;6026021;23;7223;-76